Time;durP1;ratioP1;P1;durP2;ratioP2;P2;SDS_P1;SDS_P2;PMS_P1;PMS_P2;Temp;Humidity;BMP_temperature;BMP_pressure;BME280_temperature;BME280_humidity;BME280_pressure;Samples;Min_cycle;Max_cycle;Signal;HPM_P1;HPM_P2
2021/08/12 00:00:58;;;;;;;;;;;;;;;;;;;;;
2021/08/12 00:09:52;;;;;;;1.95;1.48;;;;;;;18.88;59.67;93088.25;5014550;28;20041;-95
2021/08/12 00:12:54;;;;;;;;;;;;;;;;;;;;;
2021/08/12 00:16:04;;;;;;;;;;;;;;;;;;;;;
2021/08/12 00:22:44;;;;;;;3.10;1.65;;;;;;;18.85;60.71;93096.84;5006124;28;20065;-94
2021/08/12 00:25:53;;;;;;;;;;;;;;;;;;;;;
2021/08/12 00:31:40;;;;;;;1.35;1.15;;;;;;;19.03;60.83;93128.56;4987978;28;20045;-94
2021/08/12 00:34:56;;;;;;;;;;;;;;;;;;;;;
2021/08/12 00:38:07;;;;;;;6.03;1.83;;;;;;;18.96;61.31;93129.09;5015481;28;20042;-95
2021/08/12 00:40:57;;;;;;;2.35;1.58;;;;;;;18.94;61.88;93133.94;5003005;28;20042;-93
2021/08/12 00:44:15;;;;;;;5.95;1.58;;;;;;;18.63;62.25;93089.16;5001336;28;20060;-94
2021/08/12 00:47:23;;;;;;;;;;;;;;;;;;;;;
2021/08/12 00:53:54;;;;;;;;;;;;;;;;;;;;;
2021/08/12 01:00:35;;;;;;;1.98;1.20;;;;;;;18.73;62.80;93117.94;4997777;28;20050;-93
2021/08/12 01:06:41;;;;;;;4.38;1.85;;;;;;;18.80;63.55;93147.44;4968349;28;20042;-94
2021/08/12 01:09:47;;;;;;;2.35;1.30;;;;;;;18.50;63.72;93102.31;4978555;28;20042;-94
2021/08/12 01:13:16;;;;;;;1.55;1.20;;;;;;;18.75;64.00;93149.47;4984475;28;20204;-93
2021/08/12 01:16:22;;;;;;;2.25;1.42;;;;;;;18.53;64.23;93114.19;4977668;28;20046;-94
2021/08/12 01:19:19;;;;;;;;;;;;;;;;;;;;;
2021/08/12 01:22:07;;;;;;;1.92;1.35;;;;;;;18.35;64.51;93099.44;4993299;28;20037;-94
2021/08/12 01:25:19;;;;;;;2.28;1.13;;;;;;;18.66;64.86;93146.84;4994226;28;20044;-94
2021/08/12 01:28:15;;;;;;;2.08;1.27;;;;;;;18.28;65.00;93103.38;4994635;28;20044;-94
2021/08/12 01:31:25;;;;;;;3.05;1.40;;;;;;;18.58;64.40;93147.69;4995232;28;20039;-94
2021/08/12 01:38:08;;;;;;;3.67;1.52;;;;;;;18.19;62.96;93097.31;4997225;28;20048;-94
2021/08/12 01:41:01;;;;;;;1.65;1.13;;;;;;;18.48;62.19;93141.63;4996676;28;20038;-94
2021/08/12 01:44:31;;;;;;;;;;;;;;;;;;;;;
2021/08/12 01:47:35;;;;;;;2.63;1.60;;;;;;;18.28;61.28;93107.88;5013836;28;20037;-94
2021/08/12 01:50:15;;;;;;;1.65;1.20;;;;;;;18.16;61.65;93083.94;4997201;28;20062;-94
2021/08/12 01:53:40;;;;;;;;;;;;;;;;;;;;;
2021/08/12 01:57:09;;;;;;;;;;;;;;;;;;;;;
2021/08/12 02:00:02;;;;;;;;;;;;;;;;;;;;;
2021/08/12 02:02:51;;;;;;;2.83;1.85;;;;;;;18.09;62.91;93084.44;4993584;28;20050;-93
2021/08/12 02:06:01;;;;;;;5.68;1.38;;;;;;;18.08;62.89;93083.66;5008227;28;20030;-93
2021/08/12 02:09:01;;;;;;;;;;;;;;;;;;;;;
2021/08/12 02:14:52;;;;;;;3.17;1.67;;;;;;;18.40;63.69;93123.91;4977770;28;20057;-94
2021/08/12 02:18:03;;;;;;;;;;;;;;;;;;;;;
2021/08/12 02:21:38;;;;;;;3.85;1.73;;;;;;;18.08;63.68;93074.91;4993369;28;20412;-94
2021/08/12 02:24:57;;;;;;;3.05;1.17;;;;;;;18.11;63.67;93084.91;4994154;28;20049;-93
2021/08/12 02:28:11;;;;;;;2.15;1.15;;;;;;;18.04;63.39;93074.03;4977942;28;20046;-94
2021/08/12 02:30:56;;;;;;;1.65;1.17;;;;;;;18.00;62.73;93068.56;5012690;28;20038;-94
2021/08/12 02:37:23;;;;;;;;;;;;;;;;;;;;;
2021/08/12 02:40:43;;;;;;;2.40;1.13;;;;;;;18.17;62.48;93082.84;4994239;28;20051;-94
2021/08/12 02:43:25;;;;;;;2.25;1.23;;;;;;;18.05;62.50;93057.78;4993375;28;20141;-94
2021/08/12 02:46:26;;;;;;;;;;;;;;;;;;;;;
2021/08/12 02:50:03;;;;;;;;;;;;;;;;;;;;;
2021/08/12 02:52:36;;;;;;;2.05;1.40;;;;;;;18.04;63.04;93069.50;5010881;28;20049;-94
2021/08/12 02:55:46;;;;;;;3.22;1.38;;;;;;;18.01;62.77;93066.69;5012161;28;20037;-93
2021/08/12 02:58:36;;;;;;;2.42;1.23;;;;;;;18.31;62.88;93117.88;4984071;28;20135;-94
2021/08/12 03:01:55;;;;;;;1.55;1.05;;;;;;;17.99;63.02;93072.34;5022372;28;20057;-96
2021/08/12 03:04:53;;;;;;;;;;;;;;;;;;;;;
2021/08/12 03:07:51;;;;;;;2.05;1.27;;;;;;;18.04;62.79;93103.16;4989815;28;20054;-94
2021/08/12 03:10:45;;;;;;;;;;;;;;;;;;;;;
2021/08/12 03:13:45;;;;;;;;;;;;;;;;;;;;;
2021/08/12 03:16:54;;;;;;;;;;;;;;;;;;;;;
2021/08/12 03:19:53;;;;;;;2.00;1.40;;;;;;;17.91;62.14;93093.53;5011345;28;20072;-94
2021/08/12 03:28:38;;;;;;;;;;;;;;;;;;;;;
2021/08/12 03:31:31;;;;;;;2.55;1.35;;;;;;;17.85;61.63;93093.69;4995129;28;20049;-93
2021/08/12 03:34:18;;;;;;;3.05;1.80;;;;;;;17.79;62.00;93094.94;4982249;28;20404;-93
2021/08/12 03:40:26;;;;;;;;;;;;;;;;;;;;;
2021/08/12 03:43:26;;;;;;;1.70;1.42;;;;;;;17.65;62.43;93102.28;5013995;28;20594;-96
2021/08/12 03:46:53;;;;;;;;;;;;;;;;;;;;;
2021/08/12 03:50:17;;;;;;;;;;;;;;;;;;;;;
2021/08/12 03:52:57;;;;;;;2.28;1.40;;;;;;;17.70;63.16;93118.03;4999907;28;20056;-95
2021/08/12 03:55:53;;;;;;;2.20;1.40;;;;;;;17.97;62.94;93166.41;5014479;28;20041;-95
2021/08/12 03:59:11;;;;;;;;;;;;;;;;;;;;;
2021/08/12 04:01:54;;;;;;;1.70;1.17;;;;;;;17.71;63.28;93134.69;5015916;28;20038;-95
2021/08/12 04:07:47;;;;;;;1.50;0.93;;;;;;;17.61;63.34;93119.91;4984689;28;20073;-94
2021/08/12 04:10:45;;;;;;;2.80;1.85;;;;;;;17.89;63.70;93165.34;4993950;28;20045;-94
2021/08/12 04:13:48;;;;;;;;;;;;;;;;;;;;;
2021/08/12 04:16:51;;;;;;;10.68;1.50;;;;;;;17.55;63.47;93119.28;5008139;28;20034;-95
2021/08/12 04:19:53;;;;;;;2.47;1.30;;;;;;;17.56;63.25;93118.22;4979922;28;20051;-95
2021/08/12 04:25:40;;;;;;;1.00;0.90;;;;;;;17.55;63.22;93114.00;4989236;28;20101;-95
2021/08/12 04:28:44;;;;;;;;;;;;;;;;;;;;;
2021/08/12 04:31:23;;;;;;;1.38;1.23;;;;;;;17.84;63.40;93158.34;4978266;28;20519;-94
2021/08/12 04:34:08;;;;;;;2.03;1.17;;;;;;;17.72;63.46;93141.53;4963806;28;20039;-94
2021/08/12 04:43:37;;;;;;;;;;;;;;;;;;;;;
2021/08/12 04:46:52;;;;;;;2.65;1.40;;;;;;;17.82;64.10;93147.28;5017475;28;20101;-94
2021/08/12 04:49:31;;;;;;;3.70;1.30;;;;;;;17.81;64.85;93136.97;4997865;28;20042;-94
2021/08/12 04:52:33;;;;;;;2.75;1.42;;;;;;;17.82;64.86;93133.28;5014023;28;20533;-94
2021/08/12 04:55:44;;;;;;;3.72;2.10;;;;;;;17.85;65.00;93132.66;4997841;28;20439;-93
2021/08/12 04:58:38;;;;;;;2.83;1.75;;;;;;;17.96;64.91;93139.16;5015157;28;20034;-93
2021/08/12 05:01:28;;;;;;;2.38;1.50;;;;;;;18.22;65.39;93170.13;5013764;28;20037;-93
2021/08/12 05:04:29;;;;;;;3.90;1.20;;;;;;;18.40;65.42;93192.81;4996589;28;20116;-93
2021/08/12 05:07:32;;;;;;;2.67;1.40;;;;;;;18.30;65.32;93166.66;4987387;28;20050;-92
2021/08/12 05:13:54;;;;;;;;;;;;;;;;;;;;;
2021/08/12 05:20:39;;;;;;;2.13;1.42;;;;;;;18.76;64.17;93194.22;5012317;28;20049;-92
2021/08/12 05:23:30;;;;;;;2.28;1.30;;;;;;;18.80;63.89;93183.78;4992852;28;20074;-91
2021/08/12 05:26:17;;;;;;;1.63;1.02;;;;;;;19.10;63.73;93205.78;4993742;28;20492;-93
2021/08/12 05:29:05;;;;;;;3.15;1.70;;;;;;;19.10;63.96;93192.53;4971744;28;20046;-92
2021/08/12 05:32:08;;;;;;;1.95;1.55;;;;;;;19.05;63.87;93164.31;5011633;28;20045;-92
2021/08/12 05:38:52;;;;;;;1.90;1.20;;;;;;;19.32;63.63;93165.69;4999939;28;20046;-93
2021/08/12 05:42:09;;;;;;;;;;;;;;;;;;;;;
2021/08/12 05:48:02;;;;;;;3.78;1.60;;;;;;;19.79;63.32;93179.84;5010088;28;20069;-93
2021/08/12 05:50:48;;;;;;;1.75;1.10;;;;;;;19.99;63.60;93183.56;4998076;28;20048;-93
2021/08/12 05:53:31;;;;;;;;;;;;;;;;;;;;;
2021/08/12 05:59:42;;;;;;;;;;;;;;;;;;;;;
2021/08/12 06:02:32;;;;;;;;;;;;;;;;;;;;;
2021/08/12 06:05:16;;;;;;;2.55;1.50;;;;;;;20.88;62.10;93199.81;5011221;28;20104;-93
2021/08/12 06:08:08;;;;;;;3.08;1.70;;;;;;;21.12;61.61;93219.53;4996623;28;20050;-92
2021/08/12 06:11:22;;;;;;;3.53;1.50;;;;;;;21.27;61.65;93212.75;4990018;28;20159;-93
2021/08/12 06:14:07;;;;;;;;;;;;;;;;;;;;;
2021/08/12 06:17:11;;;;;;;1.85;1.30;;;;;;;24.24;54.00;93260.16;4992603;28;20030;-93
2021/08/12 06:20:05;;;;;;;1.98;1.20;;;;;;;26.72;45.92;93220.91;4992592;28;20055;-94
2021/08/12 06:23:00;;;;;;;3.78;2.30;;;;;;;28.82;42.72;93263.63;4978876;28;20362;-92
2021/08/12 06:26:32;;;;;;;4.43;2.17;;;;;;;30.08;39.45;93229.28;4993228;28;20125;-93
2021/08/12 06:29:14;;;;;;;;;;;;;;;;;;;;;
2021/08/12 06:35:47;;;;;;;4.50;2.85;;;;;;;33.37;33.20;93259.81;4982679;28;20050;-92
2021/08/12 06:38:53;;;;;;;5.68;2.60;;;;;;;34.26;31.85;93255.97;4993098;28;20037;-92
2021/08/12 06:41:48;;;;;;;5.70;3.05;;;;;;;35.16;30.90;93244.00;4992009;28;20054;-93
2021/08/12 06:44:45;;;;;;;3.42;2.10;;;;;;;35.37;28.81;93261.75;4979343;28;20061;-92
2021/08/12 06:47:30;;;;;;;;;;;;;;;;;;;;;
2021/08/12 06:53:49;;;;;;;4.65;2.78;;;;;;;34.26;34.75;93234.22;5008938;28;20172;-93
2021/08/12 06:56:57;;;;;;;;;;;;;;;;;;;;;
2021/08/12 06:59:26;;;;;;;6.88;2.45;;;;;;;33.48;34.56;93272.41;5012298;28;20113;-92
2021/08/12 07:02:21;;;;;;;;;;;;;;;;;;;;;
2021/08/12 07:04:53;;;;;;;3.20;2.08;;;;;;;30.44;39.93;93244.56;5001908;28;20080;-93
2021/08/12 07:07:51;;;;;;;;;;;;;;;;;;;;;
2021/08/12 07:10:31;;;;;;;3.03;1.77;;;;;;;28.67;44.81;93270.13;5015520;28;20052;-92
2021/08/12 07:13:09;;;;;;;3.17;1.70;;;;;;;27.06;48.65;93256.50;5000502;28;20038;-91
2021/08/12 07:15:42;;;;;;;2.53;1.48;;;;;;;26.76;49.41;93259.31;5015910;28;20041;-92
2021/08/12 07:18:37;;;;;;;3.55;2.10;;;;;;;26.53;49.06;93233.34;4991015;28;20066;-91
2021/08/12 07:21:23;;;;;;;5.53;2.10;;;;;;;26.49;50.73;93231.78;4995164;28;20045;-91
2021/08/12 07:27:09;;;;;;;2.35;1.65;;;;;;;27.36;48.90;93250.25;4975459;28;20065;-91
2021/08/12 07:30:03;;;;;;;;;;;;;;;;;;;;;
2021/08/12 07:33:14;;;;;;;;;;;;;;;;;;;;;
2021/08/12 07:36:09;;;;;;;5.18;1.95;;;;;;;27.26;51.73;93280.50;4992894;28;20042;-92
2021/08/12 07:42:40;;;;;;;3.20;1.77;;;;;;;27.25;52.62;93265.53;4988261;28;20034;-91
2021/08/12 07:45:14;;;;;;;3.42;2.20;;;;;;;27.17;49.03;93237.78;4966215;28;20136;-92
2021/08/12 07:48:01;;;;;;;;;;;;;;;;;;;;;
2021/08/12 07:50:53;;;;;;;4.32;2.42;;;;;;;26.53;52.06;93244.09;4982977;28;20038;-92
2021/08/12 07:53:50;;;;;;;;;;;;;;;;;;;;;
2021/08/12 07:56:56;;;;;;;;;;;;;;;;;;;;;
2021/08/12 07:59:35;;;;;;;2.63;1.90;;;;;;;26.24;54.73;93267.16;5012800;28;20045;-93
2021/08/12 08:02:15;;;;;;;2.28;1.63;;;;;;;25.62;56.59;93274.75;5002073;28;20046;-92
2021/08/12 08:05:29;;;;;;;4.70;2.40;;;;;;;25.91;53.67;93265.22;5007646;28;20046;-92
2021/08/12 08:08:30;;;;;;;4.22;2.20;;;;;;;26.25;52.74;93263.31;5008249;28;20441;-93
2021/08/12 08:11:16;;;;;;;;;;;;;;;;;;;;;
2021/08/12 08:14:21;;;;;;;4.20;2.30;;;;;;;26.41;52.10;93246.25;5005599;28;20042;-93
2021/08/12 08:17:37;;;;;;;;;;;;;;;;;;;;;
2021/08/12 08:21:05;;;;;;;6.00;2.42;;;;;;;26.14;53.57;93265.13;5013311;28;20042;-92
2021/08/12 08:24:16;;;;;;;4.72;3.00;;;;;;;26.39;49.63;93246.63;5009298;28;20077;-92
2021/08/12 08:30:37;;;;;;;5.18;2.78;;;;;;;26.98;47.17;93254.91;4992228;28;20046;-92
2021/08/12 08:33:28;;;;;;;3.97;2.38;;;;;;;26.79;47.55;93262.03;4987958;28;20238;-91
2021/08/12 08:36:21;;;;;;;7.05;3.20;;;;;;;27.11;45.38;93255.38;4977210;28;20441;-92
2021/08/12 08:42:49;;;;;;;7.00;3.10;;;;;;;27.32;46.10;93260.19;4993158;28;20034;-92
2021/08/12 08:45:39;;;;;;;;;;;;;;;;;;;;;
2021/08/12 08:48:24;;;;;;;8.52;3.10;;;;;;;27.42;46.65;93286.38;5010480;28;20102;-92
2021/08/12 08:50:54;;;;;;;5.57;3.30;;;;;;;27.45;45.32;93264.13;5012852;28;20038;-92
2021/08/12 08:54:11;;;;;;;5.45;2.92;;;;;;;27.78;45.44;93270.47;4999368;28;20395;-92
2021/08/12 08:56:50;;;;;;;4.70;2.90;;;;;;;27.82;44.62;93266.66;4994995;28;20050;-92
2021/08/12 09:07:29;;;;;;;6.15;2.95;;;;;;;27.06;48.89;93317.53;4933611;29;20621;-79
2021/08/12 09:09:59;;;;;;;7.28;3.42;;;;;;;26.33;50.20;93312.50;4936497;29;20047;-79
2021/08/12 09:12:25;;;;;;;4.55;2.83;;;;;;;26.86;50.22;93314.25;4959016;28;20043;-77
2021/08/12 09:15:02;;;;;;;6.22;3.30;;;;;;;27.43;47.90;93320.19;4951103;29;20031;-78
2021/08/12 09:17:29;;;;;;;5.05;2.67;;;;;;;27.53;46.78;93318.72;4918459;29;20502;-78
2021/08/12 09:20:06;;;;;;;5.05;2.92;;;;;;;27.29;47.02;93320.06;4919534;29;20526;-79
2021/08/12 09:23:10;;;;;;;7.07;3.60;;;;;;;26.63;49.47;93319.78;4934691;29;20497;-77
2021/08/12 09:25:48;;;;;;;5.55;3.50;;;;;;;27.50;48.96;93317.53;4932476;28;20125;-84
2021/08/12 09:28:18;;;;;;;4.90;2.83;;;;;;;27.45;51.64;93320.59;4947666;29;20039;-79
2021/08/12 09:30:49;;;;;;;3.88;2.22;;;;;;;27.24;50.21;93318.47;4954556;28;20457;-79
2021/08/12 09:33:18;;;;;;;3.60;2.33;;;;;;;27.21;51.37;93324.59;4961972;28;20066;-80
2021/08/12 09:35:45;;;;;;;4.55;2.67;;;;;;;26.99;52.31;93313.63;4937632;29;20039;-79
2021/08/12 09:38:13;;;;;;;4.65;2.83;;;;;;;26.43;53.46;93316.44;4954102;28;20039;-80
2021/08/12 09:40:40;;;;;;;5.78;3.22;;;;;;;26.62;51.92;93320.94;4954079;28;20027;-81
2021/08/12 09:43:07;;;;;;;7.40;3.08;;;;;;;27.15;54.13;93320.66;4941588;29;20106;-83
2021/08/12 09:45:35;;;;;;;4.72;2.78;;;;;;;26.97;53.09;93320.50;4936990;29;20536;-81
2021/08/12 09:48:22;;;;;;;4.22;2.35;;;;;;;27.08;52.11;93324.06;4957246;28;20404;-80
2021/08/12 09:51:02;;;;;;;4.32;2.47;;;;;;;27.13;50.76;93318.38;4952222;28;20054;-80
2021/08/12 09:53:28;;;;;;;3.85;2.25;;;;;;;27.18;51.88;93318.03;4939653;28;20035;-83
2021/08/12 09:55:54;;;;;;;4.95;3.05;;;;;;;26.97;52.79;93313.22;4936324;29;20040;-77
2021/08/12 09:58:20;;;;;;;4.10;2.58;;;;;;;27.12;51.10;93314.13;4936100;29;20036;-83
2021/08/12 10:00:48;;;;;;;5.22;2.50;;;;;;;27.34;51.77;93320.50;4958121;28;20560;-80
2021/08/12 10:03:30;;;;;;;4.53;2.65;;;;;;;26.67;52.25;93318.66;4954902;28;20042;-78
2021/08/12 10:06:01;;;;;;;6.07;3.33;;;;;;;27.20;53.69;93310.41;4932650;29;20060;-81
2021/08/12 10:08:27;;;;;;;6.75;2.72;;;;;;;27.49;50.43;93316.00;4919612;29;20084;-81
2021/08/12 10:10:53;;;;;;;4.80;2.85;;;;;;;27.95;49.14;93309.44;4924573;29;20028;-79
2021/08/12 10:13:20;;;;;;;4.32;2.63;;;;;;;27.82;50.23;93314.31;4918082;29;20040;-83
2021/08/12 10:15:49;;;;;;;5.30;2.58;;;;;;;26.82;55.10;93302.69;4930774;29;20501;-81
2021/08/12 10:18:20;;;;;;;4.57;2.40;;;;;;;26.99;53.83;93310.94;4917751;29;20055;-81
2021/08/12 10:20:48;;;;;;;3.50;2.20;;;;;;;26.91;54.14;93305.88;4917413;29;20032;-79
2021/08/12 10:23:15;;;;;;;3.65;2.45;;;;;;;26.43;56.09;93297.66;4921152;29;20421;-81
2021/08/12 10:25:42;;;;;;;7.25;3.53;;;;;;;26.64;54.53;93307.88;4912074;29;20031;-80
2021/08/12 10:28:10;;;;;;;4.65;2.80;;;;;;;26.64;54.16;93297.13;4918443;29;20482;-79
2021/08/12 10:30:37;;;;;;;4.72;2.88;;;;;;;26.65;53.98;93307.53;4925523;29;20418;-78
2021/08/12 10:33:07;;;;;;;6.78;3.20;;;;;;;26.50;54.69;93297.72;4929712;29;20023;-80
2021/08/12 10:35:35;;;;;;;4.97;2.78;;;;;;;26.65;55.07;93307.53;4919828;29;20453;-81
2021/08/12 10:38:02;;;;;;;4.88;2.42;;;;;;;26.28;55.52;93302.88;4927698;29;20032;-77
2021/08/12 10:40:34;;;;;;;4.65;2.72;;;;;;;26.36;54.61;93303.72;4924047;29;20046;-78
2021/08/12 10:43:02;;;;;;;3.65;2.35;;;;;;;26.73;54.21;93298.41;4927069;29;20040;-80
2021/08/12 10:45:29;;;;;;;3.10;2.00;;;;;;;26.70;53.77;93296.44;4923006;29;20032;-80
2021/08/12 10:47:56;;;;;;;4.70;2.92;;;;;;;27.02;53.33;93293.31;4927910;29;20533;-80
2021/08/12 10:50:22;;;;;;;3.50;2.10;;;;;;;26.65;52.81;93299.47;4927714;29;20050;-80
2021/08/12 10:53:06;;;;;;;13.73;2.30;;;;;;;26.50;53.34;93289.69;4926414;29;20024;-78
2021/08/12 10:55:34;;;;;;;3.67;2.33;;;;;;;26.53;51.71;93291.66;4922638;29;20094;-80
2021/08/12 10:58:29;;;;;;;5.07;2.70;;;;;;;27.05;52.29;93289.88;4925707;29;20498;-80
2021/08/12 11:00:59;;;;;;;7.18;2.70;;;;;;;26.65;51.66;93286.03;4921605;29;20040;-82
2021/08/12 11:03:35;;;;;;;4.70;2.70;;;;;;;26.75;52.19;93290.75;4913976;29;20512;-79
2021/08/12 11:06:03;;;;;;;4.25;2.55;;;;;;;26.79;51.82;93288.88;4917921;29;20052;-80
2021/08/12 11:08:58;;;;;;;5.85;2.88;;;;;;;26.95;53.05;93287.88;4935980;29;20075;-81
2021/08/12 11:11:25;;;;;;;3.60;2.55;;;;;;;27.18;50.04;93288.47;4935041;29;20040;-81
2021/08/12 11:13:56;;;;;;;4.70;3.00;;;;;;;27.33;49.24;93288.59;4929101;29;20027;-79
2021/08/12 11:16:45;;;;;;;3.67;2.30;;;;;;;26.74;51.38;93286.53;4939075;29;20087;-81
2021/08/12 11:19:32;;;;;;;3.97;2.42;;;;;;;27.17;50.93;93289.59;4939878;29;20122;-80
2021/08/12 11:21:59;;;;;;;5.38;3.00;;;;;;;27.07;50.66;93282.22;4939550;29;20126;-80
2021/08/12 11:24:24;;;;;;;5.38;2.35;;;;;;;27.03;53.68;93288.72;4936070;29;20040;-81
2021/08/12 11:26:53;;;;;;;4.70;2.72;;;;;;;27.31;50.07;93293.56;4954602;29;20110;-81
2021/08/12 11:29:36;;;;;;;8.63;2.65;;;;;;;27.15;51.39;93286.50;4939530;29;20039;-79
2021/08/12 11:32:14;;;;;;;4.13;2.42;;;;;;;27.32;48.86;93289.75;4953609;29;20032;-81
2021/08/12 11:34:56;;;;;;;4.20;2.80;;;;;;;27.47;50.03;93291.41;4938496;29;20043;-81
2021/08/12 11:37:23;;;;;;;5.10;2.78;;;;;;;27.49;49.44;93288.34;4939087;29;20071;-81
2021/08/12 11:40:07;;;;;;;7.03;2.22;;;;;;;27.11;50.78;93293.78;4954691;29;20127;-80
2021/08/12 11:42:37;;;;;;;3.63;2.35;;;;;;;27.20;50.25;93288.09;4954168;29;20504;-80
2021/08/12 11:45:07;;;;;;;4.53;2.60;;;;;;;27.23;49.87;93286.63;4935503;29;20100;-78
2021/08/12 11:47:34;;;;;;;7.35;3.42;;;;;;;27.45;49.94;93277.56;4920731;29;20036;-80
2021/08/12 11:50:01;;;;;;;4.95;2.90;;;;;;;28.08;50.01;93277.56;4918541;29;20521;-81
2021/08/12 11:52:33;;;;;;;6.65;3.13;;;;;;;28.09;48.89;93284.50;4934964;29;20055;-80
2021/08/12 11:55:12;;;;;;;4.53;2.75;;;;;;;28.21;49.15;93284.16;4920229;29;20038;-79
2021/08/12 11:57:45;;;;;;;5.88;3.20;;;;;;;28.01;48.99;93284.47;4935086;29;20044;-81
2021/08/12 12:00:12;;;;;;;4.20;2.40;;;;;;;28.35;50.66;93284.25;4900780;29;20059;-81
2021/08/12 12:02:47;;;;;;;4.53;2.55;;;;;;;28.56;49.36;93282.81;4901046;29;20467;-81
2021/08/12 12:05:13;;;;;;;5.32;2.92;;;;;;;28.79;48.93;93277.09;4926704;29;20063;-81
2021/08/12 12:07:55;;;;;;;4.35;2.85;;;;;;;28.81;47.55;93272.84;4956404;28;20043;-81
2021/08/12 12:10:32;;;;;;;4.78;2.45;;;;;;;29.01;48.63;93273.25;4958120;29;20106;-81
2021/08/12 12:13:21;;;;;;;4.35;2.75;;;;;;;28.10;48.95;93275.28;4957847;29;20126;-81
2021/08/12 12:15:48;;;;;;;7.55;3.03;;;;;;;28.07;48.39;93276.03;4955115;29;20119;-82
2021/08/12 12:18:15;;;;;;;3.38;2.25;;;;;;;28.02;48.87;93275.25;4957235;29;20039;-81
2021/08/12 12:20:45;;;;;;;4.90;2.67;;;;;;;27.93;49.53;93272.13;4955162;28;20501;-81
2021/08/12 12:23:16;;;;;;;5.88;2.95;;;;;;;28.50;48.62;93268.16;4955504;29;20457;-80
2021/08/12 12:25:47;;;;;;;3.58;2.60;;;;;;;28.20;49.25;93263.78;4953052;29;20059;-78
2021/08/12 12:28:14;;;;;;;4.47;2.77;;;;;;;28.24;49.14;93264.59;4937754;29;20101;-81
2021/08/12 12:30:40;;;;;;;8.38;2.83;;;;;;;28.31;47.88;93258.47;4937365;29;20295;-80
2021/08/12 12:33:09;;;;;;;5.65;3.58;;;;;;;28.08;48.92;93259.53;4937079;29;20035;-77
2021/08/12 12:35:37;;;;;;;4.90;3.15;;;;;;;27.67;49.38;93261.56;4938751;29;20059;-81
2021/08/12 12:38:10;;;;;;;6.30;3.35;;;;;;;27.90;50.78;93253.25;4937023;29;20062;-75
2021/08/12 12:40:36;;;;;;;4.32;2.25;;;;;;;27.61;50.28;93255.78;4937811;29;20054;-79
2021/08/12 12:43:03;;;;;;;6.75;3.35;;;;;;;27.49;49.28;93243.41;4936005;29;20079;-80
2021/08/12 12:45:46;;;;;;;4.55;2.80;;;;;;;27.87;48.91;93252.09;4936459;29;20031;-81
2021/08/12 12:48:12;;;;;;;5.22;2.65;;;;;;;27.81;50.78;93248.22;4956641;29;20050;-81
2021/08/12 12:50:47;;;;;;;3.97;2.53;;;;;;;27.92;50.84;93243.69;4956638;29;20093;-80
2021/08/12 12:53:14;;;;;;;5.10;2.55;;;;;;;27.87;51.04;93248.66;4956408;29;20035;-81
2021/08/12 12:55:51;;;;;;;4.43;2.53;;;;;;;27.92;50.02;93238.31;4953737;29;20039;-79
2021/08/12 12:58:26;;;;;;;4.35;2.97;;;;;;;28.11;51.24;93239.91;4930821;29;20036;-81
2021/08/12 13:01:18;;;;;;;6.97;3.50;;;;;;;28.47;49.74;93250.06;4917586;29;20036;-81
2021/08/12 13:03:54;;;;;;;4.93;2.55;;;;;;;28.71;50.19;93241.28;4918161;29;20043;-81
2021/08/12 13:06:36;;;;;;;4.93;2.72;;;;;;;28.27;49.35;93247.66;4910006;29;20062;-80
2021/08/12 13:09:03;;;;;;;5.22;3.05;;;;;;;28.48;47.64;93241.59;4919784;29;20032;-81
2021/08/12 13:11:31;;;;;;;5.05;2.95;;;;;;;28.61;48.26;93242.03;4920228;29;20114;-79
2021/08/12 13:14:12;;;;;;;6.32;3.03;;;;;;;28.14;49.23;93243.78;4932259;29;20487;-80
2021/08/12 13:16:49;;;;;;;6.82;3.60;;;;;;;28.36;49.05;93244.63;4941082;29;20576;-81
2021/08/12 13:19:23;;;;;;;4.63;2.90;;;;;;;28.73;48.26;93240.88;4931245;29;20035;-81
2021/08/12 13:21:54;;;;;;;4.82;2.70;;;;;;;28.62;49.70;93235.50;4918023;29;20036;-81
2021/08/12 13:24:22;;;;;;;9.10;3.30;;;;;;;28.24;49.69;93241.13;4917310;29;20047;-81
2021/08/12 13:26:53;;;;;;;4.68;3.13;;;;;;;28.39;49.83;93233.09;4925480;29;20032;-78
2021/08/12 13:29:26;;;;;;;4.43;2.85;;;;;;;28.31;51.35;93231.53;4936325;29;20043;-79
2021/08/12 13:31:53;;;;;;;5.20;3.00;;;;;;;28.38;47.67;93232.31;4936020;29;20046;-80
2021/08/12 13:34:22;;;;;;;5.32;2.60;;;;;;;28.71;47.83;93227.03;4936183;29;20036;-80
2021/08/12 13:36:48;;;;;;;4.60;2.83;;;;;;;28.26;49.16;93223.81;4928895;29;20031;-81
2021/08/12 13:39:15;;;;;;;6.95;3.45;;;;;;;28.52;48.44;93217.38;4916671;29;20068;-81
2021/08/12 13:42:08;;;;;;;6.32;2.92;;;;;;;28.26;48.21;93223.81;4932544;29;20052;-79
2021/08/12 13:44:36;;;;;;;4.85;2.42;;;;;;;28.57;45.57;93215.06;4915459;29;20084;-80
2021/08/12 13:47:04;;;;;;;3.67;2.42;;;;;;;28.70;47.18;93220.13;4918784;29;20055;-79
2021/08/12 13:49:30;;;;;;;4.32;2.45;;;;;;;28.62;47.00;93213.97;4917112;29;20686;-80
2021/08/12 13:51:57;;;;;;;6.72;2.88;;;;;;;29.10;45.94;93216.31;4917467;29;20040;-81
2021/08/12 13:54:24;;;;;;;4.72;2.80;;;;;;;28.93;46.54;93206.28;4930847;29;20052;-81
2021/08/12 13:56:50;;;;;;;3.85;2.50;;;;;;;28.91;44.70;93217.44;4916844;29;20028;-80
2021/08/12 13:59:16;;;;;;;5.85;3.50;;;;;;;29.14;45.34;93209.00;4904783;29;20385;-80
2021/08/12 14:01:42;;;;;;;4.97;2.70;;;;;;;29.32;46.68;93210.91;4897906;29;20102;-81
2021/08/12 14:04:08;;;;;;;5.80;3.08;;;;;;;28.99;46.00;93207.44;4898267;29;20053;-79
2021/08/12 14:06:35;;;;;;;4.55;3.05;;;;;;;28.97;46.42;93217.81;4913724;29;20553;-81
2021/08/12 14:09:03;;;;;;;5.30;2.58;;;;;;;28.92;46.16;93210.91;4919571;29;20047;-81
2021/08/12 14:11:28;;;;;;;3.70;2.40;;;;;;;28.82;47.65;93212.44;4935962;29;20038;-81
2021/08/12 14:13:54;;;;;;;4.75;2.83;;;;;;;28.41;49.61;93206.56;4936432;29;20044;-80
2021/08/12 14:16:21;;;;;;;6.82;3.03;;;;;;;28.30;48.55;93211.91;4917960;29;20419;-81
2021/08/12 14:18:47;;;;;;;5.45;2.83;;;;;;;28.58;47.32;93216.63;4936887;29;20036;-81
2021/08/12 14:21:14;;;;;;;5.15;3.25;;;;;;;28.85;49.18;93210.91;4934525;29;20561;-81
2021/08/12 14:23:41;;;;;;;9.50;2.65;;;;;;;28.94;48.09;93213.97;4935449;29;20442;-81
2021/08/12 14:26:07;;;;;;;5.95;2.83;;;;;;;29.26;47.09;93215.94;4934727;29;20039;-81
2021/08/12 14:28:33;;;;;;;5.20;2.97;;;;;;;29.35;47.06;93210.91;4952294;29;20055;-81
2021/08/12 14:31:01;;;;;;;5.25;2.53;;;;;;;28.81;46.36;93202.03;4954667;29;20051;-81
2021/08/12 14:33:30;;;;;;;4.60;3.10;;;;;;;28.86;46.88;93213.19;4954577;29;20035;-81
2021/08/12 14:36:00;;;;;;;6.13;2.97;;;;;;;29.27;46.00;93215.53;4954856;29;20098;-81
2021/08/12 14:38:27;;;;;;;5.10;3.00;;;;;;;29.09;46.79;93211.31;4953185;29;20047;-81
2021/08/12 14:40:55;;;;;;;6.07;3.25;;;;;;;29.45;47.44;93212.03;4955248;29;20057;-80
2021/08/12 14:43:21;;;;;;;5.78;2.40;;;;;;;29.55;47.04;93213.97;4954300;29;20390;-80
2021/08/12 14:45:47;;;;;;;4.68;2.70;;;;;;;29.55;47.52;93213.19;4954933;29;20038;-80
2021/08/12 14:48:12;;;;;;;5.95;2.92;;;;;;;29.44;47.08;93207.81;4941725;29;20043;-80
2021/08/12 14:50:38;;;;;;;5.03;3.15;;;;;;;29.65;48.12;93209.69;4918958;29;20277;-80
2021/08/12 14:53:03;;;;;;;4.75;2.78;;;;;;;30.09;46.28;93214.59;4936119;29;20063;-80
2021/08/12 14:55:29;;;;;;;4.75;2.97;;;;;;;29.99;46.27;93211.94;4935681;29;20458;-81
2021/08/12 14:57:55;;;;;;;4.97;3.22;;;;;;;30.05;44.78;93203.03;4943633;29;20039;-81
2021/08/12 15:00:20;;;;;;;5.70;2.75;;;;;;;30.26;46.50;93210.28;4919028;29;20306;-81
2021/08/12 15:02:46;;;;;;;5.05;3.13;;;;;;;30.31;45.19;93214.53;4934818;29;20482;-81
2021/08/12 15:05:11;;;;;;;5.55;3.20;;;;;;;30.07;46.56;93211.50;4913532;29;20064;-81
2021/08/12 15:07:37;;;;;;;5.72;3.58;;;;;;;30.16;45.20;93207.63;4930514;29;20490;-81
2021/08/12 15:10:06;;;;;;;5.38;2.90;;;;;;;30.00;46.42;93211.53;4932137;29;20044;-82
2021/08/12 15:12:32;;;;;;;5.00;3.40;;;;;;;29.26;46.26;93207.84;4916702;29;20044;-80
2021/08/12 15:14:58;;;;;;;5.53;3.10;;;;;;;29.51;46.10;93202.41;4914762;29;20520;-82
2021/08/12 15:17:24;;;;;;;7.72;4.40;;;;;;;30.12;47.09;93204.19;4917239;29;20031;-81
2021/08/12 15:19:49;;;;;;;5.45;2.92;;;;;;;30.06;48.00;93207.28;4951004;29;20086;-81
2021/08/12 15:22:15;;;;;;;5.47;3.38;;;;;;;29.95;45.95;93201.16;4936156;29;20039;-81
2021/08/12 15:24:41;;;;;;;6.40;2.95;;;;;;;30.15;47.59;93208.78;4938674;29;20047;-81
2021/08/12 15:27:06;;;;;;;7.30;3.75;;;;;;;30.53;47.27;93203.59;4923754;29;20376;-81
2021/08/12 15:29:32;;;;;;;6.03;3.53;;;;;;;30.46;47.19;93199.78;4918575;29;20036;-82
2021/08/12 15:31:57;;;;;;;6.78;3.38;;;;;;;30.71;46.05;93196.16;4919934;29;20414;-81
2021/08/12 15:34:23;;;;;;;10.82;4.22;;;;;;;30.83;45.66;93195.69;4919184;29;20040;-81
2021/08/12 15:36:49;;;;;;;4.80;3.20;;;;;;;31.00;45.43;93188.63;4932818;29;20039;-81
2021/08/12 15:39:14;;;;;;;6.55;3.65;;;;;;;30.60;46.24;93192.75;4940091;29;20043;-81